createdAt,value
2023-05-09T00:00:24.636Z,63.6873
2023-05-09T00:01:26.569Z,63.5551
2023-05-09T00:02:28.413Z,63.4220
2023-05-09T00:03:30.159Z,63.3618
2023-05-09T00:04:32.021Z,63.3325
2023-05-09T00:05:33.822Z,63.2760
2023-05-09T00:06:35.652Z,63.3135
2023-05-09T00:07:37.489Z,63.2371
2023-05-09T00:08:39.295Z,63.1106
2023-05-09T00:09:41.169Z,63.1400
2023-05-09T00:10:42.978Z,63.2382
2023-05-09T00:11:44.823Z,63.1842
2023-05-09T00:12:46.664Z,63.0810
2023-05-09T00:13:48.480Z,63.0737
2023-05-09T00:14:50.315Z,63.1438
2023-05-09T00:15:52.144Z,63.2294
2023-05-09T00:16:54.163Z,63.1496
2023-05-09T00:17:55.855Z,63.1253
2023-05-09T00:18:57.654Z,63.0649
2023-05-09T00:19:59.464Z,63.0389
2023-05-09T00:21:01.305Z,62.9477
2023-05-09T00:22:03.149Z,62.8443
2023-05-09T00:23:05.070Z,62.7144
2023-05-09T00:24:06.799Z,62.7223
2023-05-09T00:25:08.615Z,62.6599
2023-05-09T00:26:10.471Z,62.6387
2023-05-09T00:27:12.352Z,62.6446
2023-05-09T00:28:14.150Z,62.6972
2023-05-09T00:29:15.968Z,62.8156
2023-05-09T00:30:17.828Z,62.9018
2023-05-09T00:31:19.617Z,62.9514
2023-05-09T00:32:21.539Z,62.8359
2023-05-09T00:33:23.295Z,62.8556
2023-05-09T00:34:25.121Z,62.8815
2023-05-09T00:35:27.016Z,62.9514
2023-05-09T00:36:28.778Z,62.8366
2023-05-09T00:37:30.624Z,62.8625
2023-05-09T00:38:32.458Z,62.8441
2023-05-09T00:39:34.288Z,62.7029
2023-05-09T00:40:36.112Z,62.6171
2023-05-09T00:41:37.927Z,62.7254
2023-05-09T00:42:39.766Z,62.7966
2023-05-09T00:43:41.618Z,62.8303
2023-05-09T00:44:43.489Z,62.8329
2023-05-09T00:45:45.304Z,62.7705
2023-05-09T00:46:47.105Z,62.6617
2023-05-09T00:47:49.518Z,62.4528
2023-05-09T00:48:50.783Z,62.3735
2023-05-09T00:49:52.615Z,62.3576
2023-05-09T00:50:54.513Z,62.5320
2023-05-09T00:51:56.255Z,62.5826
2023-05-09T00:52:58.175Z,62.5735
2023-05-09T00:53:59.942Z,62.5883
2023-05-09T00:55:01.774Z,62.6142
2023-05-09T00:56:03.593Z,62.6761
2023-05-09T00:57:05.448Z,62.6369
2023-05-09T00:58:07.265Z,62.4634
2023-05-09T00:59:09.088Z,62.3245
2023-05-09T01:00:10.910Z,62.3062
2023-05-09T01:01:12.797Z,62.3192
2023-05-09T01:02:14.618Z,62.4849
2023-05-09T01:03:16.622Z,62.5333
2023-05-09T01:04:18.268Z,62.6013
2023-05-09T01:05:20.098Z,62.5372
2023-05-09T01:06:21.921Z,62.3367
2023-05-09T01:07:23.754Z,62.3449
2023-05-09T01:08:25.590Z,62.5640
2023-05-09T01:09:27.420Z,62.7628
2023-05-09T01:10:29.273Z,62.8600
2023-05-09T01:11:31.110Z,62.7843
2023-05-09T01:12:32.926Z,62.6905
2023-05-09T01:13:34.777Z,62.7799
2023-05-09T01:14:36.607Z,62.8684
2023-05-09T01:15:38.468Z,62.8578
2023-05-09T01:16:40.265Z,62.7656
2023-05-09T01:17:42.124Z,62.7258
2023-05-09T01:18:44.137Z,62.7432
2023-05-09T01:19:45.797Z,62.7379
2023-05-09T01:20:47.626Z,62.5987
2023-05-09T01:21:49.485Z,62.6771
2023-05-09T01:22:51.313Z,62.6683
2023-05-09T01:23:53.172Z,62.5408
2023-05-09T01:24:55.072Z,62.5864
2023-05-09T01:25:56.820Z,62.4778
2023-05-09T01:26:58.660Z,62.5031
2023-05-09T01:28:00.510Z,62.5277
2023-05-09T01:29:02.318Z,62.5907
2023-05-09T01:30:04.147Z,62.5247
2023-05-09T01:31:06.056Z,62.5477
2023-05-09T01:32:07.889Z,62.4822
2023-05-09T01:33:09.754Z,62.3191
2023-05-09T01:34:11.590Z,62.3878
2023-05-09T01:35:13.458Z,62.5989
2023-05-09T01:36:15.168Z,62.7437
2023-05-09T01:37:16.999Z,62.5709
2023-05-09T01:38:18.841Z,62.6303
2023-05-09T01:39:20.659Z,62.6744
2023-05-09T01:40:22.514Z,62.6953
2023-05-09T01:41:24.440Z,62.6217
2023-05-09T01:42:26.166Z,62.6860
2023-05-09T01:43:28.061Z,62.6977
2023-05-09T01:44:29.856Z,62.7305
2023-05-09T01:45:31.739Z,62.5741
2023-05-09T01:46:33.544Z,62.4694
2023-05-09T01:47:35.412Z,62.5633
2023-05-09T01:48:37.201Z,62.5723
2023-05-09T01:49:39.124Z,62.6117
2023-05-09T01:50:40.848Z,62.6825
2023-05-09T01:51:43.866Z,62.5891
2023-05-09T01:52:44.532Z,62.3608
2023-05-09T01:53:46.380Z,62.2675
2023-05-09T01:54:48.201Z,62.1704
2023-05-09T01:55:50.028Z,62.1095
2023-05-09T01:56:51.877Z,62.0485
2023-05-09T01:57:53.697Z,61.9278
2023-05-09T01:58:55.614Z,61.8725
2023-05-09T01:59:57.505Z,61.9034
2023-05-09T02:00:59.328Z,61.8290
2023-05-09T02:02:01.157Z,61.7076
2023-05-09T02:03:03.001Z,61.6692
2023-05-09T02:04:04.780Z,61.6517
2023-05-09T02:05:06.708Z,61.6097
2023-05-09T02:06:16.360Z,61.5770
2023-05-09T02:07:10.282Z,61.5548
2023-05-09T02:08:12.117Z,61.5825
2023-05-09T02:09:13.954Z,61.6810
2023-05-09T02:10:15.827Z,61.7172
2023-05-09T02:11:25.179Z,61.8024
2023-05-09T02:12:19.513Z,61.7578
2023-05-09T02:13:21.421Z,61.6610
2023-05-09T02:14:23.148Z,61.5973
2023-05-09T02:15:25.016Z,61.5588
2023-05-09T02:16:26.804Z,61.5190
2023-05-09T02:17:28.679Z,61.5624
2023-05-09T02:18:30.462Z,61.6434
2023-05-09T02:19:32.299Z,61.5787
2023-05-09T02:20:34.227Z,61.4406
2023-05-09T02:21:35.967Z,61.3788
2023-05-09T02:22:37.814Z,61.5248
2023-05-09T02:23:39.635Z,61.6737
2023-05-09T02:24:41.467Z,61.7264
2023-05-09T02:25:43.312Z,61.6955
2023-05-09T02:26:45.172Z,61.7650
2023-05-09T02:27:46.997Z,61.8276
2023-05-09T02:28:48.824Z,61.7992
2023-05-09T02:29:50.641Z,61.7158
2023-05-09T02:30:52.496Z,61.7252
2023-05-09T02:31:54.353Z,61.7814
2023-05-09T02:32:56.219Z,61.8234
2023-05-09T02:33:57.989Z,61.8296
2023-05-09T02:34:59.829Z,61.9157
2023-05-09T02:36:01.760Z,61.9117
2023-05-09T02:37:03.511Z,62.0894
2023-05-09T02:38:05.366Z,62.1287
2023-05-09T02:39:07.204Z,62.0249
2023-05-09T02:40:09.019Z,61.9630
2023-05-09T02:41:10.852Z,62.0088
2023-05-09T02:42:12.698Z,62.0218
2023-05-09T02:43:14.509Z,61.9401
2023-05-09T02:44:16.354Z,61.8443
2023-05-09T02:45:18.204Z,61.7812
2023-05-09T02:46:20.070Z,61.9360
2023-05-09T02:47:21.857Z,61.8752
2023-05-09T02:48:23.700Z,61.8778
2023-05-09T02:49:32.072Z,61.7325
2023-05-09T02:50:28.353Z,61.6275
2023-05-09T02:51:29.297Z,61.6000
2023-05-09T02:52:31.032Z,61.5704
2023-05-09T02:53:32.877Z,61.5561
2023-05-09T02:54:34.707Z,61.5791
2023-05-09T02:55:36.521Z,61.6800
2023-05-09T02:56:38.361Z,61.6584
2023-05-09T02:57:40.243Z,61.6595
2023-05-09T02:58:42.050Z,61.7353
2023-05-09T02:59:43.879Z,61.7094
2023-05-09T03:00:45.713Z,61.6997
2023-05-09T03:01:47.565Z,61.7820
2023-05-09T03:02:49.420Z,61.7962
2023-05-09T03:03:51.268Z,61.8762
2023-05-09T03:04:53.046Z,61.8425
2023-05-09T03:05:54.880Z,61.8896
2023-05-09T03:06:56.796Z,61.9777
2023-05-09T03:07:58.557Z,62.0060
2023-05-09T03:09:00.379Z,62.0796
2023-05-09T03:10:02.245Z,62.0982
2023-05-09T03:11:04.068Z,62.1461
2023-05-09T03:12:05.921Z,62.1560
2023-05-09T03:13:07.831Z,62.1729
2023-05-09T03:14:09.556Z,62.2082
2023-05-09T03:15:11.439Z,62.2555
2023-05-09T03:16:13.265Z,62.2151
2023-05-09T03:17:15.070Z,62.1671
2023-05-09T03:18:16.903Z,62.1526
2023-05-09T03:19:18.723Z,62.1236
2023-05-09T03:20:20.555Z,62.2304
2023-05-09T03:21:22.403Z,62.2297
2023-05-09T03:22:24.321Z,62.1632
2023-05-09T03:23:26.132Z,62.1952
2023-05-09T03:24:27.878Z,62.1992
2023-05-09T03:25:29.714Z,62.2236
2023-05-09T03:26:31.574Z,62.2778
2023-05-09T03:27:33.381Z,62.3386
2023-05-09T03:28:35.260Z,62.3715
2023-05-09T03:29:37.080Z,62.4146
2023-05-09T03:30:38.882Z,62.4345
2023-05-09T03:31:40.809Z,62.4788
2023-05-09T03:32:42.580Z,62.5194
2023-05-09T03:33:44.391Z,62.5298
2023-05-09T03:34:46.254Z,62.5356
2023-05-09T03:35:48.054Z,62.5513
2023-05-09T03:36:49.891Z,62.5423
2023-05-09T03:37:51.911Z,62.5985
2023-05-09T03:38:53.567Z,62.6475
2023-05-09T03:39:55.408Z,62.6556
2023-05-09T03:40:57.264Z,62.6500
2023-05-09T03:41:59.060Z,62.6261
2023-05-09T03:43:00.902Z,62.5858
2023-05-09T03:44:02.747Z,62.5877
2023-05-09T03:45:04.576Z,62.6114
2023-05-09T03:46:06.408Z,62.5720
2023-05-09T03:47:08.260Z,62.5201
2023-05-09T03:48:10.109Z,62.4732
2023-05-09T03:49:11.898Z,62.5151
2023-05-09T03:50:13.752Z,62.5014
2023-05-09T03:51:15.558Z,62.4874
2023-05-09T03:52:17.404Z,62.4981
2023-05-09T03:53:19.326Z,62.4844
2023-05-09T03:54:21.063Z,62.5265
2023-05-09T03:55:22.906Z,62.5063
2023-05-09T03:56:24.723Z,62.5079
2023-05-09T03:57:26.573Z,62.5225
2023-05-09T03:58:28.397Z,62.5142
2023-05-09T03:59:30.260Z,62.5128
2023-05-09T04:00:32.075Z,62.5158
2023-05-09T04:01:33.917Z,62.5406
2023-05-09T04:02:35.930Z,62.5555
2023-05-09T04:03:37.679Z,62.5443
2023-05-09T04:04:39.388Z,62.5505
2023-05-09T04:05:41.243Z,62.5311
2023-05-09T04:06:43.069Z,62.5478
2023-05-09T04:07:44.889Z,62.5330
2023-05-09T04:08:46.825Z,62.5061
2023-05-09T04:09:48.583Z,62.4826
2023-05-09T04:10:50.395Z,62.4777
2023-05-09T04:11:52.253Z,62.4461
2023-05-09T04:12:54.123Z,62.4181
2023-05-09T04:13:55.921Z,62.4138
2023-05-09T04:14:58.267Z,62.4191
2023-05-09T04:15:59.580Z,62.3908
2023-05-09T04:17:01.506Z,62.3912
2023-05-09T04:18:03.315Z,62.4410
2023-05-09T04:19:05.061Z,62.4513
2023-05-09T04:20:06.895Z,62.4694
2023-05-09T04:21:08.735Z,62.4998
2023-05-09T04:22:10.579Z,62.5513
2023-05-09T04:23:12.392Z,62.5974
2023-05-09T04:24:14.328Z,62.5910
2023-05-09T04:25:16.398Z,62.6377
2023-05-09T04:26:17.914Z,62.6275
2023-05-09T04:27:19.746Z,62.6546
2023-05-09T04:28:21.581Z,62.6731
2023-05-09T04:29:23.397Z,62.7482
2023-05-09T04:30:25.252Z,62.6907
2023-05-09T04:31:27.166Z,62.7589
2023-05-09T04:32:28.913Z,62.7312
2023-05-09T04:33:30.747Z,62.6994
2023-05-09T04:34:32.578Z,62.7548
2023-05-09T04:35:34.424Z,62.7716
2023-05-09T04:36:36.263Z,62.7637
2023-05-09T04:37:38.065Z,62.7707
2023-05-09T04:38:39.892Z,62.8103
2023-05-09T04:39:41.820Z,62.8676
2023-05-09T04:40:43.589Z,62.8858
2023-05-09T04:41:45.407Z,62.9092
2023-05-09T04:42:47.250Z,62.9609
2023-05-09T04:43:49.066Z,62.9748
2023-05-09T04:44:50.892Z,63.0780
2023-05-09T04:45:52.750Z,63.0912
2023-05-09T04:46:54.557Z,63.0661
2023-05-09T04:47:56.436Z,63.1121
2023-05-09T04:48:58.228Z,63.0959
2023-05-09T04:50:00.061Z,63.1091
2023-05-09T04:51:01.858Z,63.1246
2023-05-09T04:52:03.691Z,63.1237
2023-05-09T04:53:05.517Z,63.1113
2023-05-09T04:54:07.356Z,63.1417
2023-05-09T04:55:09.293Z,63.1634
2023-05-09T04:56:11.015Z,63.2066
2023-05-09T04:57:18.050Z,63.2498
2023-05-09T04:58:17.397Z,63.3266
2023-05-09T04:59:17.976Z,63.3721
2023-05-09T05:00:19.516Z,63.3801
2023-05-09T05:01:21.110Z,63.4249
2023-05-09T05:02:22.721Z,63.4052
2023-05-09T05:03:24.208Z,63.4132
2023-05-09T05:04:25.821Z,63.3613
2023-05-09T05:05:27.901Z,63.4519
2023-05-09T05:06:29.357Z,63.4740
2023-05-09T05:07:31.206Z,63.4982
2023-05-09T05:08:33.008Z,63.5434
2023-05-09T05:09:34.841Z,63.5362
2023-05-09T05:10:36.841Z,63.5497
2023-05-09T05:11:38.539Z,63.6301
2023-05-09T05:12:40.392Z,63.6191
2023-05-09T05:13:42.182Z,63.6551
2023-05-09T05:14:44.015Z,63.7130
2023-05-09T05:15:45.891Z,63.7564
2023-05-09T05:16:47.687Z,63.7159
2023-05-09T05:17:49.560Z,63.7294
2023-05-09T05:18:51.375Z,63.7329
2023-05-09T05:19:53.177Z,63.7177
2023-05-09T05:20:55.018Z,63.7304
2023-05-09T05:21:56.860Z,63.7869
2023-05-09T05:22:58.696Z,63.8591
2023-05-09T05:24:00.553Z,63.8911
2023-05-09T05:25:02.357Z,63.8333
2023-05-09T05:26:04.280Z,63.7797
2023-05-09T05:27:06.045Z,63.8180
2023-05-09T05:28:07.870Z,63.8336
2023-05-09T05:29:09.692Z,63.8192
2023-05-09T05:30:11.572Z,63.8323
2023-05-09T05:31:13.392Z,63.8911
2023-05-09T05:32:15.218Z,63.8546
2023-05-09T05:33:17.060Z,63.8515
2023-05-09T05:34:18.891Z,63.8490
2023-05-09T05:35:20.714Z,63.8721
2023-05-09T05:36:22.583Z,63.7831
2023-05-09T05:37:24.375Z,63.8552
2023-05-09T05:38:26.232Z,63.8997
2023-05-09T05:39:28.064Z,63.9334
2023-05-09T05:40:29.894Z,64.0069
2023-05-09T05:41:31.825Z,64.0327
2023-05-09T05:42:33.592Z,64.0646
2023-05-09T05:43:35.399Z,64.1450
2023-05-09T05:44:37.229Z,64.0887
2023-05-09T05:45:39.088Z,64.1320
2023-05-09T05:46:40.908Z,64.1512
2023-05-09T05:47:42.773Z,64.1600
2023-05-09T05:48:44.599Z,64.1953
2023-05-09T05:49:46.410Z,64.2241
2023-05-09T05:50:48.259Z,64.2152
2023-05-09T05:51:50.076Z,64.2130
2023-05-09T05:52:51.936Z,64.2987
2023-05-09T05:53:53.758Z,64.3772
2023-05-09T05:54:55.616Z,64.3780
2023-05-09T05:55:57.417Z,64.3413
2023-05-09T05:56:59.348Z,64.3451
2023-05-09T05:58:01.105Z,64.3835
2023-05-09T05:59:02.920Z,64.4017
2023-05-09T06:00:04.766Z,64.4409
2023-05-09T06:01:06.660Z,64.3876
2023-05-09T06:02:08.566Z,64.4597
2023-05-09T06:03:10.356Z,64.4798
2023-05-09T06:04:12.201Z,64.4943
2023-05-09T06:05:14.164Z,64.5556
2023-05-09T06:06:15.874Z,64.5873
2023-05-09T06:07:17.711Z,64.6361
2023-05-09T06:08:19.516Z,64.5816
2023-05-09T06:09:21.345Z,64.5994
2023-05-09T06:10:23.189Z,64.6324
2023-05-09T06:11:25.029Z,64.6413
2023-05-09T06:12:28.054Z,64.6523
2023-05-09T06:13:28.783Z,64.5975
2023-05-09T06:14:30.535Z,64.6064
2023-05-09T06:15:32.380Z,64.5982
2023-05-09T06:16:34.255Z,64.6711
2023-05-09T06:17:36.084Z,64.7487
2023-05-09T06:18:37.896Z,64.7597
2023-05-09T06:19:39.773Z,64.7222
2023-05-09T06:20:41.561Z,64.7961
2023-05-09T06:21:43.388Z,64.8487
2023-05-09T06:22:45.240Z,64.8819
2023-05-09T06:24:04.207Z,64.8936
2023-05-09T06:24:49.914Z,64.9740
2023-05-09T06:25:50.772Z,64.9501
2023-05-09T06:26:52.603Z,65.1240
2023-05-09T06:27:54.518Z,65.0826
2023-05-09T06:28:56.247Z,64.9908
2023-05-09T06:29:58.094Z,65.0306
2023-05-09T06:30:59.952Z,65.0925
2023-05-09T06:32:01.789Z,65.1839
2023-05-09T06:33:03.709Z,65.1719
2023-05-09T06:34:05.445Z,65.1097
2023-05-09T06:35:07.305Z,65.0732
2023-05-09T06:36:09.126Z,65.0718
2023-05-09T06:37:10.972Z,65.0746
2023-05-09T06:38:12.825Z,65.0191
2023-05-09T06:39:14.628Z,64.9650
2023-05-09T06:40:16.489Z,64.9138
2023-05-09T06:41:18.314Z,64.8621
2023-05-09T06:42:20.158Z,64.9288
2023-05-09T06:43:22.098Z,64.8908
2023-05-09T06:44:23.822Z,64.8889
2023-05-09T06:45:25.679Z,64.8017
2023-05-09T06:46:27.521Z,64.7999
2023-05-09T06:47:29.328Z,64.7783
2023-05-09T06:48:31.156Z,64.6920
2023-05-09T06:49:33.009Z,64.7078
2023-05-09T06:50:34.875Z,64.6845
2023-05-09T06:51:36.694Z,64.6419
2023-05-09T06:52:38.575Z,64.6285
2023-05-09T06:53:40.351Z,64.5913
2023-05-09T06:54:42.176Z,64.6009
2023-05-09T06:55:44.017Z,64.6206
2023-05-09T06:56:45.869Z,64.6117
2023-05-09T06:57:47.699Z,64.5913
2023-05-09T06:58:49.623Z,64.6035
2023-05-09T06:59:51.354Z,64.6270
2023-05-09T07:00:53.202Z,64.6543
2023-05-09T07:01:55.065Z,64.6382
2023-05-09T07:02:56.995Z,64.6489
2023-05-09T07:03:58.716Z,64.6517
2023-05-09T07:05:00.619Z,64.6320
2023-05-09T07:06:02.362Z,64.5475
2023-05-09T07:07:04.212Z,64.5755
2023-05-09T07:08:06.050Z,64.5468
2023-05-09T07:09:07.897Z,64.4793
2023-05-09T07:10:11.760Z,64.4393
2023-05-09T07:11:11.537Z,64.4068
2023-05-09T07:12:13.382Z,64.3342
2023-05-09T07:13:15.238Z,64.2528
2023-05-09T07:14:17.132Z,64.1954
2023-05-09T07:15:29.095Z,64.1665
2023-05-09T07:16:21.733Z,64.0976
2023-05-09T07:17:23.927Z,63.9929
2023-05-09T07:18:24.399Z,63.8111
2023-05-09T07:19:26.218Z,63.6538
2023-05-09T07:20:28.050Z,63.5700
2023-05-09T07:21:29.913Z,63.5024
2023-05-09T07:22:33.051Z,63.3431
2023-05-09T07:23:33.575Z,63.2962
2023-05-09T07:24:35.377Z,63.2305
2023-05-09T07:25:37.216Z,63.1397
2023-05-09T07:26:39.068Z,63.0805
2023-05-09T07:27:40.874Z,63.0253
2023-05-09T07:28:42.714Z,62.9745
2023-05-09T07:29:44.641Z,62.9875
2023-05-09T07:30:46.393Z,62.9767
2023-05-09T07:31:48.268Z,62.9735
2023-05-09T07:32:50.163Z,62.9290
2023-05-09T07:33:51.879Z,62.8866
2023-05-09T07:34:53.727Z,62.8660
2023-05-09T07:35:55.556Z,62.8426
2023-05-09T07:36:57.386Z,62.8102
2023-05-09T07:37:59.218Z,62.7305
2023-05-09T07:39:01.054Z,62.6876
2023-05-09T07:40:02.882Z,62.6405
2023-05-09T07:41:04.722Z,62.5766
2023-05-09T07:42:06.547Z,62.5074
2023-05-09T07:43:08.381Z,62.4616
2023-05-09T07:44:10.226Z,62.4365
2023-05-09T07:45:12.185Z,62.3503
2023-05-09T07:46:13.886Z,62.2593
2023-05-09T07:47:15.695Z,62.1814
2023-05-09T07:48:17.548Z,62.0509
2023-05-09T07:49:19.381Z,61.9742
2023-05-09T07:50:21.210Z,61.8967
2023-05-09T07:51:23.067Z,61.8209
2023-05-09T07:52:24.860Z,61.7594
2023-05-09T07:53:26.724Z,61.6678
2023-05-09T07:54:28.564Z,61.6128
2023-05-09T07:55:30.381Z,61.5725
2023-05-09T07:56:32.221Z,61.4814
2023-05-09T07:57:34.043Z,61.3673
2023-05-09T07:58:35.878Z,61.2956
2023-05-09T07:59:37.704Z,61.2831
2023-05-09T08:00:39.613Z,61.2957
2023-05-09T08:01:41.362Z,61.2793
2023-05-09T08:02:43.303Z,61.2632
2023-05-09T08:03:45.143Z,61.2876
2023-05-09T08:04:46.859Z,61.2282
2023-05-09T08:05:48.693Z,61.1838
2023-05-09T08:06:50.528Z,61.1822
2023-05-09T08:07:52.360Z,61.1923
2023-05-09T08:08:54.244Z,61.1739
2023-05-09T08:09:56.027Z,61.1563
2023-05-09T08:10:57.851Z,61.1181
2023-05-09T08:11:59.693Z,61.0940
2023-05-09T08:13:01.549Z,61.0759
2023-05-09T08:14:03.387Z,61.1052
2023-05-09T08:15:05.239Z,61.1242
2023-05-09T08:16:07.203Z,61.0887
2023-05-09T08:17:08.854Z,61.0830
2023-05-09T08:18:10.691Z,61.0565
2023-05-09T08:19:12.525Z,61.0131
2023-05-09T08:20:14.353Z,60.9673
2023-05-09T08:21:16.195Z,60.9211
2023-05-09T08:22:18.001Z,61.0173
2023-05-09T08:23:19.830Z,61.0957
2023-05-09T08:24:21.671Z,61.1021
2023-05-09T08:25:23.506Z,61.1667
2023-05-09T08:26:25.354Z,61.2032
2023-05-09T08:27:27.212Z,61.2420
2023-05-09T08:28:29.024Z,61.2719
2023-05-09T08:29:30.858Z,61.2615
2023-05-09T08:30:32.684Z,61.2692
2023-05-09T08:31:34.631Z,61.2680
2023-05-09T08:32:36.380Z,61.2411
2023-05-09T08:33:40.531Z,61.2178
2023-05-09T08:34:40.036Z,61.2287
2023-05-09T08:35:41.854Z,61.1735
2023-05-09T08:36:43.707Z,61.1772
2023-05-09T08:37:45.522Z,61.1963
2023-05-09T08:38:47.364Z,61.1613
2023-05-09T08:39:49.224Z,61.1823
2023-05-09T08:40:51.021Z,61.1989
2023-05-09T08:41:52.869Z,61.2468
2023-05-09T08:42:54.709Z,61.2598
2023-05-09T08:43:56.533Z,61.2183
2023-05-09T08:44:58.362Z,61.2637
2023-05-09T08:46:00.433Z,61.3502
2023-05-09T08:47:02.188Z,61.4030
2023-05-09T08:48:03.912Z,61.4975
2023-05-09T08:49:05.713Z,61.6049
2023-05-09T08:50:07.566Z,61.6348
2023-05-09T08:51:09.386Z,61.7317
2023-05-09T08:52:11.215Z,61.7320
2023-05-09T08:53:13.030Z,61.7476
2023-05-09T08:54:14.876Z,61.7173
2023-05-09T08:55:16.717Z,61.6941
2023-05-09T08:56:18.551Z,61.6996
2023-05-09T08:57:20.373Z,61.6895
2023-05-09T08:58:22.224Z,61.6790
2023-05-09T08:59:24.054Z,61.6580
2023-05-09T09:00:25.874Z,61.6650
2023-05-09T09:01:27.776Z,61.6644
2023-05-09T09:02:29.690Z,61.6672
2023-05-09T09:03:31.378Z,61.6496
2023-05-09T09:04:33.275Z,61.6946
2023-05-09T09:06:38.891Z,61.7767
2023-05-09T09:07:40.437Z,61.7846
2023-05-09T09:08:42.030Z,61.7711
2023-05-09T09:09:43.542Z,61.7145
2023-05-09T09:10:45.131Z,61.7297
2023-05-09T09:11:46.677Z,61.7109
2023-05-09T09:12:50.013Z,61.7092
2023-05-09T09:13:49.779Z,61.7411
2023-05-09T09:14:51.574Z,61.7572
2023-05-09T09:15:53.429Z,61.7715
2023-05-09T09:16:55.284Z,61.8075
2023-05-09T09:17:57.201Z,61.8466
2023-05-09T09:18:59.124Z,61.8920
2023-05-09T09:20:00.734Z,61.9266
2023-05-09T09:21:02.550Z,61.9460
2023-05-09T09:22:04.398Z,61.9149
2023-05-09T09:23:06.240Z,61.9252
2023-05-09T09:24:08.062Z,61.9352
2023-05-09T09:25:09.884Z,61.8881
2023-05-09T09:26:11.711Z,61.8948
2023-05-09T09:27:13.549Z,61.8970
2023-05-09T09:28:15.382Z,61.8891
2023-05-09T09:29:17.229Z,61.9001
2023-05-09T09:30:19.065Z,61.9442
2023-05-09T09:31:20.982Z,61.9367
2023-05-09T09:32:22.855Z,61.9286
2023-05-09T09:33:24.633Z,61.9391
2023-05-09T09:34:26.377Z,61.9407
2023-05-09T09:35:28.239Z,61.8615
2023-05-09T09:36:30.055Z,61.8952
2023-05-09T09:37:31.885Z,61.9292
2023-05-09T09:38:33.704Z,61.8894
2023-05-09T09:39:35.547Z,61.8797
2023-05-09T09:40:37.389Z,61.8299
2023-05-09T09:41:39.254Z,61.7753
2023-05-09T09:42:41.057Z,61.7657
2023-05-09T09:43:42.880Z,61.7192
2023-05-09T09:44:44.710Z,61.6763
2023-05-09T09:45:46.588Z,61.6007
2023-05-09T09:46:48.394Z,61.6087
2023-05-09T09:47:50.308Z,61.5449
2023-05-09T09:48:52.132Z,61.5351
2023-05-09T09:49:53.872Z,61.5495
2023-05-09T09:50:55.728Z,61.5347
2023-05-09T09:51:57.571Z,61.4879
2023-05-09T09:52:59.386Z,61.4501
2023-05-09T09:54:01.257Z,61.4041
2023-05-09T09:55:03.037Z,61.3757
2023-05-09T09:56:04.872Z,61.3237
2023-05-09T09:57:06.698Z,61.3684
2023-05-09T09:58:08.552Z,61.3327
2023-05-09T09:59:10.394Z,61.2982
2023-05-09T10:00:12.279Z,61.2704
2023-05-09T10:01:14.149Z,61.2708
2023-05-09T10:02:15.859Z,61.2308
2023-05-09T10:03:17.795Z,61.1599
2023-05-09T10:04:19.658Z,61.1178
2023-05-09T10:05:21.473Z,61.0782
2023-05-09T10:06:23.303Z,61.0876
2023-05-09T10:07:25.112Z,61.1549
2023-05-09T10:08:26.935Z,61.1268
2023-05-09T10:09:28.781Z,61.1496
2023-05-09T10:10:30.615Z,61.1836
2023-05-09T10:11:32.444Z,61.1951
2023-05-09T10:12:34.288Z,61.1590
2023-05-09T10:13:36.213Z,61.0970
2023-05-09T10:14:37.963Z,61.0535
2023-05-09T10:15:52.278Z,61.0312
2023-05-09T10:16:44.064Z,60.9918
2023-05-09T10:17:43.583Z,60.8961
2023-05-09T10:18:45.446Z,60.8265
2023-05-09T10:19:47.202Z,60.8112
2023-05-09T10:20:48.953Z,60.7486
2023-05-09T10:21:50.776Z,60.7385
2023-05-09T10:22:52.594Z,60.6978
2023-05-09T10:23:54.441Z,60.6608
2023-05-09T10:24:57.662Z,60.5563
2023-05-09T10:25:58.118Z,60.5043
2023-05-09T10:26:59.922Z,60.5179
2023-05-09T10:28:01.770Z,60.4823
2023-05-09T10:29:03.589Z,60.3566
2023-05-09T10:30:05.433Z,60.2364
2023-05-09T10:31:08.846Z,60.1796
2023-05-09T10:32:09.107Z,60.1496
2023-05-09T10:33:10.931Z,60.1662
2023-05-09T10:34:12.786Z,60.2044
2023-05-09T10:35:14.837Z,60.2714
2023-05-09T10:36:16.441Z,60.3928
2023-05-09T10:37:18.291Z,60.4106
2023-05-09T10:38:20.105Z,60.4249
2023-05-09T10:39:21.939Z,60.4215
2023-05-09T10:40:23.762Z,60.4078
2023-05-09T10:41:25.604Z,60.4647
2023-05-09T10:42:27.440Z,60.4842
2023-05-09T10:43:29.477Z,60.5283
2023-05-09T10:44:31.095Z,60.5342
2023-05-09T10:45:32.936Z,60.5194
2023-05-09T10:46:34.784Z,60.5321
2023-05-09T10:47:36.616Z,60.4942
2023-05-09T10:48:38.443Z,60.5118
2023-05-09T10:49:40.279Z,60.4909
2023-05-09T10:50:42.186Z,60.5168
2023-05-09T10:51:43.940Z,60.5270
2023-05-09T10:52:45.782Z,60.5131
2023-05-09T10:53:47.594Z,60.4763
2023-05-09T10:54:49.427Z,60.4687
2023-05-09T10:55:51.296Z,60.4380
2023-05-09T10:56:53.099Z,60.3912
2023-05-09T10:57:54.944Z,60.4405
2023-05-09T10:58:56.753Z,60.4904
2023-05-09T10:59:58.609Z,60.5442
2023-05-09T11:01:00.438Z,60.6687
2023-05-09T11:02:02.307Z,60.6263
2023-05-09T11:03:04.220Z,60.5801
2023-05-09T11:04:05.961Z,60.5880
2023-05-09T11:05:07.779Z,60.6077
2023-05-09T11:06:09.688Z,60.6353
2023-05-09T11:07:11.441Z,60.6169
2023-05-09T11:08:13.295Z,60.6231
2023-05-09T11:09:15.116Z,60.5887
2023-05-09T11:10:17.015Z,60.5476
2023-05-09T11:11:18.780Z,60.4857
2023-05-09T11:12:20.605Z,60.4818
2023-05-09T11:13:22.548Z,60.4996
2023-05-09T11:14:24.316Z,60.4350
2023-05-09T11:15:26.117Z,60.3196
2023-05-09T11:16:27.987Z,60.2257
2023-05-09T11:17:29.800Z,60.0621
2023-05-09T11:18:31.626Z,59.9316
2023-05-09T11:19:33.461Z,59.8869
2023-05-09T11:20:35.296Z,59.8410
2023-05-09T11:21:37.213Z,59.8164
2023-05-09T11:22:38.970Z,59.8822
2023-05-09T11:23:40.817Z,59.7778
2023-05-09T11:24:42.627Z,59.7792
2023-05-09T11:25:44.473Z,59.7708
2023-05-09T11:26:46.326Z,59.7640
2023-05-09T11:27:48.129Z,59.8355
2023-05-09T11:28:49.975Z,59.9465
2023-05-09T11:29:51.807Z,59.9945
2023-05-09T11:30:54.924Z,59.9187
2023-05-09T11:31:55.510Z,59.8657
2023-05-09T11:32:57.406Z,59.9584
2023-05-09T11:33:59.126Z,59.8498
2023-05-09T11:35:00.972Z,59.8395
2023-05-09T11:36:02.804Z,59.7868
2023-05-09T11:37:04.717Z,59.8150
2023-05-09T11:38:06.539Z,59.8013
2023-05-09T11:39:08.307Z,59.8395
2023-05-09T11:40:10.136Z,59.7987
2023-05-09T11:41:11.961Z,59.8325
2023-05-09T11:42:13.804Z,59.7780
2023-05-09T11:43:15.629Z,59.8400
2023-05-09T11:44:17.470Z,59.8085
2023-05-09T11:45:19.329Z,59.7805
2023-05-09T11:46:21.191Z,59.7911
2023-05-09T11:47:23.034Z,59.8172
2023-05-09T11:48:24.832Z,59.8236
2023-05-09T11:49:26.645Z,59.7735
2023-05-09T11:50:28.477Z,59.7072
2023-05-09T11:51:30.314Z,59.7169
2023-05-09T11:52:32.255Z,59.6466
2023-05-09T11:53:33.995Z,59.6696
2023-05-09T11:54:35.811Z,59.7636
2023-05-09T11:55:37.637Z,59.8187
2023-05-09T11:56:39.476Z,59.8628
2023-05-09T11:57:41.330Z,59.8456
2023-05-09T11:58:43.152Z,59.8162
2023-05-09T11:59:44.982Z,59.6941
2023-05-09T12:00:46.826Z,59.6775
2023-05-09T12:01:48.657Z,59.6024
2023-05-09T12:02:50.537Z,59.5204
2023-05-09T12:03:52.431Z,59.4239
2023-05-09T12:04:54.143Z,59.3966
2023-05-09T12:05:55.989Z,59.4099
2023-05-09T12:06:57.807Z,59.4171
2023-05-09T12:07:59.743Z,59.4827
2023-05-09T12:09:01.476Z,59.4023
2023-05-09T12:10:03.322Z,59.4103
2023-05-09T12:11:05.136Z,59.3528
2023-05-09T12:12:06.987Z,59.3154
2023-05-09T12:13:08.876Z,59.2991
2023-05-09T12:14:10.654Z,59.2800
2023-05-09T12:15:12.647Z,59.1974
2023-05-09T12:16:14.363Z,59.0617
2023-05-09T12:17:16.139Z,59.1242
2023-05-09T12:18:17.973Z,59.0401
2023-05-09T12:19:19.805Z,58.9543
2023-05-09T12:20:21.658Z,58.9449
2023-05-09T12:21:23.476Z,58.8819
2023-05-09T12:22:25.332Z,58.7568
2023-05-09T12:23:27.243Z,58.6105
2023-05-09T12:24:28.985Z,58.4801
2023-05-09T12:25:30.814Z,58.4410
2023-05-09T12:26:32.662Z,58.4937
2023-05-09T12:27:34.493Z,58.4878
2023-05-09T12:28:36.336Z,58.4479